Time;durP1;ratioP1;P1;durP2;ratioP2;P2;SDS_P1;SDS_P2;PMS_P1;PMS_P2;Temp;Humidity;BMP_temperature;BMP_pressure;BME280_temperature;BME280_humidity;BME280_pressure;Samples;Min_cycle;Max_cycle;Signal;HPM_P1;HPM_P2
2022/04/17 00:00:26;;;;;;;6.40;4.65;;;;;;;;;;5052260;28;20044;-62
2022/04/17 00:02:52;;;;;;;7.38;4.30;;;7.50;94.10;;;;;;5072106;28;20043;-61
2022/04/17 00:05:18;;;;;;;6.10;4.85;;;7.40;94.40;;;;;;5079540;28;20044;-62
2022/04/17 00:07:44;;;;;;;6.20;4.00;;;7.30;94.60;;;;;;5056787;28;20044;-62
2022/04/17 00:10:11;;;;;;;5.63;4.22;;;7.30;94.50;;;;;;5053847;28;20418;-61
2022/04/17 00:12:41;;;;;;;4.40;3.78;;;7.30;94.70;;;;;;5075983;28;20050;-62
2022/04/17 00:15:09;;;;;;;5.82;3.80;;;7.20;94.80;;;;;;5065518;28;20048;-61
2022/04/17 00:17:41;;;;;;;4.40;3.35;;;7.20;94.80;;;;;;5077924;28;20048;-62
2022/04/17 00:20:09;;;;;;;5.30;4.10;;;7.20;95.00;;;;;;5062947;28;20044;-62
2022/04/17 00:22:35;;;;;;;7.63;4.88;;;7.10;95.10;;;;;;5053128;28;20052;-61
2022/04/17 00:25:01;;;;;;;5.90;3.97;;;7.10;95.10;;;;;;5067004;28;20490;-62
2022/04/17 00:27:27;;;;;;;7.13;4.65;;;7.10;95.00;;;;;;5077838;28;20036;-61
2022/04/17 00:29:53;;;;;;;6.82;4.38;;;7.10;95.10;;;;;;5078363;28;20409;-62
2022/04/17 00:32:19;;;;;;;5.75;4.07;;;7.10;95.10;;;;;;5071288;28;20039;-62
2022/04/17 00:34:45;;;;;;;5.43;3.70;;;7.00;95.10;;;;;;5071686;28;20150;-62
2022/04/17 00:37:12;;;;;;;8.18;4.85;;;7.00;95.10;;;;;;5044745;28;20515;-62
2022/04/17 00:39:40;;;;;;;8.00;3.85;;;;;;;;;;5082017;28;20234;-62
2022/04/17 00:42:07;;;;;;;8.48;4.45;;;;;;;;;;5082004;28;20036;-62
2022/04/17 00:44:33;;;;;;;8.00;4.68;;;;;;;;;;5070711;28;20111;-62
2022/04/17 00:46:59;;;;;;;5.25;4.07;;;;;;;;;;5081999;28;20040;-61
2022/04/17 00:49:25;;;;;;;6.70;4.20;;;;;;;;;;5075439;28;20043;-62
2022/04/17 00:51:52;;;;;;;6.63;4.47;;;;;;;;;;5047437;28;20041;-61
2022/04/17 00:54:19;;;;;;;6.13;4.80;;;;;;;;;;5036404;28;20068;-62
2022/04/17 00:56:47;;;;;;;5.72;4.53;;;;;;;;;;5028475;28;20049;-62
2022/04/17 00:59:13;;;;;;;6.65;4.70;;;;;;;;;;5035043;28;20247;-62
2022/04/17 01:01:40;;;;;;;6.88;4.75;;;;;;;;;;5040423;28;20083;-61
2022/04/17 01:04:06;;;;;;;9.63;5.05;;;;;;;;;;5039108;28;20099;-61
2022/04/17 01:06:33;;;;;;;5.43;4.20;;;;;;;;;;5036631;28;20122;-61
2022/04/17 01:09:00;;;;;;;7.10;4.97;;;;;;;;;;5032544;28;20041;-62
2022/04/17 01:11:26;;;;;;;7.97;5.10;;;;;;;;;;5039102;28;20045;-62
2022/04/17 01:13:53;;;;;;;6.68;4.00;;;;;;;;;;5038169;28;20044;-62
2022/04/17 01:16:22;;;;;;;6.13;4.40;;;;;;;;;;5037172;28;20406;-61
2022/04/17 01:19:03;;;;;;;5.60;4.13;;;;;;;;;;5030485;28;20494;-61
2022/04/17 01:21:34;;;;;;;9.07;5.03;;;;;;;;;;5038359;28;20446;-62
2022/04/17 01:26:59;;;;;;;5.43;4.80;;;;;;;;;;5034385;28;20519;-62
2022/04/17 01:29:26;;;;;;;9.30;4.55;;;;;;;;;;5039040;28;20463;-61
2022/04/17 01:31:53;;;;;;;6.90;4.68;;;;;;;;;;5041367;28;20047;-62
2022/04/17 01:34:20;;;;;;;6.40;4.40;;;;;;;;;;5042587;28;20048;-62
2022/04/17 01:36:47;;;;;;;7.35;4.82;;;;;;;;;;5043998;28;20546;-62
2022/04/17 01:39:13;;;;;;;7.70;4.63;;;;;;;;;;5027321;28;20045;-61
2022/04/17 01:41:40;;;;;;;8.15;4.95;;;;;;;;;;5041588;28;20048;-62
2022/04/17 01:44:06;;;;;;;7.22;5.15;;;;;;;;;;5034332;28;20048;-61
2022/04/17 01:46:33;;;;;;;7.57;4.55;;;;;;;;;;5037278;28;20152;-62
2022/04/17 01:48:59;;;;;;;5.50;4.47;;;;;;;;;;5040789;28;20095;-62
2022/04/17 01:51:25;;;;;;;7.38;4.53;;;;;;;;;;5044727;28;20545;-62
2022/04/17 01:53:52;;;;;;;8.30;5.13;;;;;;;;;;5059514;28;20128;-61
2022/04/17 01:56:18;;;;;;;6.53;4.80;;;;;;;;;;5059350;28;20059;-62
2022/04/17 01:58:44;;;;;;;10.40;5.57;;;;;;;;;;5054977;28;20490;-62
2022/04/17 02:01:10;;;;;;;7.90;4.70;;;;;;;;;;5051073;28;20041;-62
2022/04/17 02:03:36;;;;;;;6.28;4.65;;;;;;;;;;5057616;28;20762;-62
2022/04/17 02:06:02;;;;;;;6.72;4.32;;;;;;;;;;5053565;28;20036;-62
2022/04/17 02:08:28;;;;;;;10.35;4.93;;;;;;;;;;5054544;28;20036;-62
2022/04/17 02:10:55;;;;;;;8.55;4.63;;;;;;;;;;5059617;28;20398;-62
2022/04/17 02:13:23;;;;;;;8.80;5.60;;;;;;;;;;5057542;28;20043;-62
2022/04/17 02:15:53;;;;;;;7.07;4.60;;;;;;;;;;5059060;28;20079;-62
2022/04/17 02:18:20;;;;;;;7.15;4.90;;;;;;;;;;5063182;28;20076;-61
2022/04/17 02:20:47;;;;;;;7.28;5.18;;;;;;;;;;5055710;28;20053;-61
2022/04/17 02:23:13;;;;;;;7.85;5.60;;;;;;;;;;5062771;28;20338;-61
2022/04/17 02:25:40;;;;;;;8.88;5.43;;;;;;;;;;5057293;28;20106;-61
2022/04/17 02:28:06;;;;;;;8.80;5.93;;;;;;;;;;5064410;28;20099;-62
2022/04/17 02:30:32;;;;;;;7.88;4.97;;;;;;;;;;5055795;28;20125;-62
2022/04/17 02:32:58;;;;;;;8.23;5.30;;;;;;;;;;5058295;28;20051;-62
2022/04/17 02:35:24;;;;;;;13.68;5.43;;;;;;;;;;5067317;28;20110;-62
2022/04/17 02:37:50;;;;;;;6.55;5.13;;;;;;;;;;5051948;28;20041;-62
2022/04/17 02:40:17;;;;;;;10.68;7.40;;;;;;;;;;5065654;28;20047;-62
2022/04/17 02:42:43;;;;;;;9.02;5.38;;;;;;;;;;5065825;28;20414;-62
2022/04/17 02:45:09;;;;;;;6.65;5.68;;;;;;;;;;5060844;28;20079;-62
2022/04/17 02:47:51;;;;;;;8.27;5.22;;;;;;;;;;5055580;28;20093;-62
2022/04/17 02:50:18;;;;;;;9.38;5.22;;;;;;;;;;5061744;28;20087;-62
2022/04/17 02:52:44;;;;;;;9.18;5.70;;;;;;;;;;5086464;28;20051;-62
2022/04/17 02:55:10;;;;;;;7.75;6.03;;;;;;;;;;5082901;28;20052;-62
2022/04/17 02:57:37;;;;;;;7.82;6.03;;;;;;;;;;5074084;28;20384;-62
2022/04/17 03:00:07;;;;;;;8.43;6.03;;;;;;;;;;5083077;28;20051;-62
2022/04/17 03:05:37;;;;;;;8.48;6.40;;;;;;;;;;5083498;28;20378;-62
2022/04/17 03:08:04;;;;;;;9.30;6.10;;;;;;;;;;5070361;28;20040;-62
2022/04/17 03:10:30;;;;;;;8.73;6.20;;;;;;;;;;5088211;28;20046;-62
2022/04/17 03:12:57;;;;;;;9.80;6.63;;;;;;;;;;5083700;28;20036;-62
2022/04/17 03:15:23;;;;;;;8.57;6.55;;;;;;;;;;5066851;28;20501;-62
2022/04/17 03:17:49;;;;;;;7.38;5.40;;;;;;;;;;5074789;28;20354;-62
2022/04/17 03:20:15;;;;;;;9.18;6.07;;;;;;;;;;5085118;28;20059;-62
2022/04/17 03:22:42;;;;;;;7.13;6.05;;;;;;;;;;5061947;28;20131;-62
2022/04/17 03:25:09;;;;;;;9.35;5.70;;;;;;;;;;5070477;28;20055;-62
2022/04/17 03:27:35;;;;;;;8.65;5.70;;;;;;;;;;5078424;28;20379;-62
2022/04/17 03:30:01;;;;;;;10.35;6.35;;;;;;;;;;5086382;28;20032;-62
2022/04/17 03:32:27;;;;;;;10.85;6.25;;;;;;;;;;5076107;28;20052;-62
2022/04/17 03:34:54;;;;;;;9.85;6.70;;;;;;;;;;5049691;28;20100;-62
2022/04/17 03:37:20;;;;;;;9.43;6.68;;;;;;;;;;5080188;28;20040;-62
2022/04/17 03:39:48;;;;;;;9.38;5.82;;;;;;;;;;5054751;28;20045;-62
2022/04/17 03:42:17;;;;;;;9.38;5.50;;;;;;;;;;5076245;28;20053;-62
2022/04/17 03:44:43;;;;;;;8.43;6.05;;;;;;;;;;5074555;28;20036;-62
2022/04/17 03:47:10;;;;;;;7.68;5.72;;;;;;;;;;5083875;28;20044;-62
2022/04/17 03:49:36;;;;;;;9.10;6.05;;;;;;;;;;5070707;28;20119;-62
2022/04/17 03:52:02;;;;;;;11.90;7.10;;;;;;;;;;5077005;28;20125;-61
2022/04/17 03:54:28;;;;;;;8.38;6.10;;;;;;;;;;5077165;28;20093;-62
2022/04/17 03:56:54;;;;;;;10.55;6.35;;;;;;;;;;5082841;28;20044;-61
2022/04/17 03:59:21;;;;;;;9.30;6.47;;;;;;;;;;5078546;28;20040;-62
2022/04/17 04:01:47;;;;;;;8.70;5.95;;;;;;;;;;5083691;28;20374;-61
2022/04/17 04:04:14;;;;;;;13.57;6.25;;;;;;;;;;5079254;28;20055;-62
2022/04/17 04:06:41;;;;;;;8.80;6.32;;;;;;;;;;5078046;28;20045;-62
2022/04/17 04:09:07;;;;;;;11.45;7.30;;;;;;;;;;5073243;28;20405;-62
2022/04/17 04:11:33;;;;;;;8.30;5.82;;;;;;;;;;5078026;28;20033;-62
2022/04/17 04:13:59;;;;;;;7.72;6.18;;;;;;;;;;5081994;28;20340;-62
2022/04/17 04:16:27;;;;;;;11.00;7.47;;;;;;;;;;5085429;28;20040;-62
2022/04/17 04:18:53;;;;;;;11.73;6.57;;;;;;;;;;5053214;28;20044;-62
2022/04/17 04:21:19;;;;;;;8.15;6.05;;;;;;;;;;5076941;28;20390;-62
2022/04/17 04:23:45;;;;;;;9.82;6.50;;;;;;;;;;5082242;28;20036;-64
2022/04/17 04:26:11;;;;;;;6.60;5.22;;;;;;;;;;5066192;28;20036;-62
2022/04/17 04:28:38;;;;;;;11.85;6.15;;;;;;;;;;5077448;28;20409;-62
2022/04/17 04:31:05;;;;;;;9.25;6.22;;;;;;;;;;5078115;28;20291;-61
2022/04/17 04:33:32;;;;;;;8.48;6.45;;;;;;;;;;5060516;28;20174;-62
2022/04/17 04:35:59;;;;;;;9.13;6.28;;;;;;;;;;5079420;28;20036;-61
2022/04/17 04:38:25;;;;;;;8.18;6.20;;;;;;;;;;5071487;28;20794;-62
2022/04/17 04:40:51;;;;;;;9.35;6.85;;;;;;;;;;5078951;28;20413;-61
2022/04/17 04:43:18;;;;;;;9.85;7.38;;;;;;;;;;5076474;28;20066;-62
2022/04/17 04:51:14;;;;;;;8.85;6.63;;;;;;;;;;5072726;28;20067;-62
2022/04/17 04:53:41;;;;;;;9.27;6.60;;;;;;;;;;5085437;28;20051;-61
2022/04/17 04:56:07;;;;;;;10.77;7.97;;;;;;;;;;5079695;28;20040;-62
2022/04/17 04:58:34;;;;;;;12.40;8.02;;;;;;;;;;5053228;28;20048;-61
2022/04/17 05:01:00;;;;;;;8.48;6.68;;;;;;;;;;5060616;28;20078;-61
2022/04/17 05:03:26;;;;;;;9.80;6.93;;;;;;;;;;5072858;28;20052;-61
2022/04/17 05:05:53;;;;;;;13.23;7.45;;;;;;;;;;5059636;28;20055;-62
2022/04/17 05:08:19;;;;;;;10.18;8.02;;;;;;;;;;5076414;28;20126;-61
2022/04/17 05:10:46;;;;;;;9.45;6.60;;;;;;;;;;5069093;28;20152;-61
2022/04/17 05:13:12;;;;;;;12.00;7.60;;;;;;;;;;5084893;28;20448;-61
2022/04/17 05:15:38;;;;;;;10.38;7.63;;;;;;;;;;5072746;28;20052;-62
2022/04/17 05:18:05;;;;;;;9.50;7.95;;;;;;;;;;5073333;28;20093;-62
2022/04/17 05:20:34;;;;;;;12.13;7.63;;;;;;;;;;5071220;28;20040;-62
2022/04/17 05:23:18;;;;;;;11.63;7.90;;;;;;;;;;5084891;28;20174;-62
2022/04/17 05:25:46;;;;;;;10.68;6.72;;;;;;;;;;5060334;28;20126;-62
2022/04/17 05:28:12;;;;;;;11.18;7.05;;;;;;;;;;5077455;28;20040;-62
2022/04/17 05:30:38;;;;;;;11.68;7.70;;;;;;;;;;5075077;28;20040;-62
2022/04/17 05:33:05;;;;;;;10.00;6.18;;;;;;;;;;5079881;28;20430;-62
2022/04/17 05:35:31;;;;;;;12.25;6.78;;;;;;;;;;5084030;28;20047;-61
2022/04/17 05:37:57;;;;;;;14.13;7.82;;;;;;;;;;5086869;28;20126;-62
2022/04/17 05:40:23;;;;;;;9.23;6.47;;;;;;;;;;5068669;28;20036;-62
2022/04/17 05:42:49;;;;;;;10.73;7.35;;;;;;;;;;5084605;28;20048;-62
2022/04/17 05:45:15;;;;;;;10.15;7.32;;;;;;;;;;5084750;28;20088;-62
2022/04/17 05:47:42;;;;;;;10.88;7.18;;;;;;;;;;5079470;28;20477;-62
2022/04/17 05:50:08;;;;;;;10.77;7.65;;;;;;;;;;5062065;28;20048;-61
2022/04/17 05:52:35;;;;;;;10.82;7.75;;;;;;;;;;5089699;28;20055;-62
2022/04/17 05:55:01;;;;;;;12.38;7.50;;;;;;;;;;5088975;28;20445;-62
2022/04/17 05:57:27;;;;;;;9.60;6.70;;;;;;;;;;5070877;28;20597;-62
2022/04/17 05:59:54;;;;;;;11.68;7.30;;;;;;;;;;5088319;28;20036;-61
2022/04/17 06:02:21;;;;;;;10.95;7.32;;;;;;;;;;5084541;28;20044;-62
2022/04/17 06:04:47;;;;;;;12.77;7.32;;;;;;;;;;5089749;28;20040;-62
2022/04/17 06:07:14;;;;;;;10.75;7.45;;;;;;;;;;5081076;28;20041;-61
2022/04/17 06:09:40;;;;;;;10.75;7.60;;;;;;;;;;5082511;28;20402;-61
2022/04/17 06:12:06;;;;;;;9.38;6.88;;;;;;;;;;5072452;28;20036;-61
2022/04/17 06:14:33;;;;;;;10.25;6.63;;;;;;;;;;5087594;28;20487;-61
2022/04/17 06:16:59;;;;;;;9.02;7.22;;;;;;;;;;5082220;28;20044;-61
2022/04/17 06:19:25;;;;;;;11.02;6.97;;;;;;;;;;5071920;28;20114;-61
2022/04/17 06:21:51;;;;;;;11.68;7.10;;;;;;;;;;5083683;28;20061;-62
2022/04/17 06:24:17;;;;;;;11.10;8.00;;;;;;;;;;5088344;28;20036;-61
2022/04/17 06:26:44;;;;;;;9.32;7.20;;;;;;;;;;5080633;28;20036;-62
2022/04/17 06:29:10;;;;;;;12.50;8.23;;;;;;;;;;5074385;28;20143;-62
2022/04/17 06:31:37;;;;;;;11.07;7.75;;;;;;;;;;5062588;28;20067;-61
2022/04/17 06:34:03;;;;;;;9.38;7.57;;;;;;;;;;5085356;28;20444;-62
2022/04/17 06:36:29;;;;;;;10.02;7.43;;;;;;;;;;5088196;28;20413;-62
2022/04/17 06:38:55;;;;;;;8.52;6.40;;;;;;;;;;5087450;28;20097;-62
2022/04/17 06:41:22;;;;;;;10.43;7.20;;;;;;;;;;5082906;28;20044;-62
2022/04/17 06:43:48;;;;;;;9.23;7.30;;;;;;;;;;5080742;28;20624;-62
2022/04/17 06:46:14;;;;;;;11.38;6.95;;;;;;;;;;5070138;28;20076;-61
2022/04/17 06:48:40;;;;;;;10.55;8.13;;;;;;;;;;5075995;28;20574;-62
2022/04/17 06:51:06;;;;;;;9.63;7.30;;;;;;;;;;5075532;28;20109;-62
2022/04/17 06:53:32;;;;;;;9.38;6.35;;;;;;;;;;5074669;28;20371;-61
2022/04/17 06:55:58;;;;;;;9.05;7.13;;;;;;;;;;5076467;28;20051;-62
2022/04/17 06:58:24;;;;;;;10.35;7.05;;;;;;;;;;5077039;28;20486;-61
2022/04/17 07:00:50;;;;;;;9.75;6.70;;;;;;;;;;5064073;28;20031;-62
2022/04/17 07:03:17;;;;;;;10.57;6.95;;;;;;;;;;5087933;28;20424;-62
2022/04/17 07:05:43;;;;;;;9.52;7.28;;;;;;;;;;5072581;28;20036;-61
2022/04/17 07:08:09;;;;;;;11.30;7.55;;;;;;;;;;5076106;28;20870;-62
2022/04/17 07:10:39;;;;;;;9.85;6.97;;;;;;;;;;5080203;28;20046;-62
2022/04/17 07:13:06;;;;;;;11.10;7.03;;;;;;;;;;5088494;28;20485;-61
2022/04/17 07:15:32;;;;;;;8.20;6.55;;;;;;;;;;5088377;28;20134;-61
2022/04/17 07:17:58;;;;;;;10.23;7.05;;;;;;;;;;5082465;28;20037;-61
2022/04/17 07:20:25;;;;;;;13.70;6.68;;;;;;;;;;5078087;28;20516;-62
2022/04/17 07:22:51;;;;;;;7.10;6.40;;;;;;;;;;5054042;28;20128;-62
2022/04/17 07:25:19;;;;;;;9.20;7.50;;;;;;;;;;5082329;28;20041;-62
2022/04/17 07:27:46;;;;;;;10.02;7.40;;;;;;;;;;5081173;28;20044;-61
2022/04/17 07:30:21;;;;;;;11.98;8.15;;;7.10;95.10;;;;;;5076401;28;20541;-61
2022/04/17 07:32:51;;;;;;;10.05;6.47;;;;;;;;;;5076029;28;20048;-61
2022/04/17 07:35:18;;;;;;;10.65;6.78;;;;;;;;;;5070940;28;20052;-61
2022/04/17 07:37:51;;;;;;;16.42;10.40;;;;;;;;;;5077305;28;20048;-62
2022/04/17 07:40:20;;;;;;;7.78;6.22;;;;;;;;;;5081915;28;20241;-62
2022/04/17 07:42:48;;;;;;;10.77;7.72;;;8.40;96.60;;;;;;5082358;28;20036;-61
2022/04/17 07:45:15;;;;;;;10.90;7.28;;;8.70;95.90;;;;;;5085120;28;20067;-61
2022/04/17 07:47:42;;;;;;;10.85;7.57;;;8.70;95.60;;;;;;5076652;28;20456;-61
2022/04/17 07:50:09;;;;;;;10.35;6.88;;;8.80;95.40;;;;;;5071492;28;20043;-62
2022/04/17 07:52:35;;;;;;;13.43;7.90;;;8.90;95.00;;;;;;5054780;28;20075;-63
2022/04/17 07:55:03;;;;;;;10.73;6.43;;;;;;;;;;5074029;28;20039;-64
2022/04/17 07:57:29;;;;;;;9.15;7.68;;;9.00;95.10;;;;;;5080379;28;20444;-66
2022/04/17 07:59:55;;;;;;;11.45;7.28;;;;;;;;;;5071618;28;20126;-78
2022/04/17 08:02:22;;;;;;;8.07;5.70;;;;;;;;;;5062975;28;20722;-72
2022/04/17 08:04:52;;;;;;;8.18;5.93;;;;;;;;;;5065745;28;20040;-72
2022/04/17 08:07:19;;;;;;;9.95;5.85;;;;;;;;;;5076871;28;20044;-69
2022/04/17 08:09:45;;;;;;;8.48;6.22;;;;;;;;;;5084702;28;20125;-75
2022/04/17 08:12:12;;;;;;;10.15;6.10;;;;;;;;;;5084114;28;20070;-74
2022/04/17 08:14:38;;;;;;;11.25;6.40;;;;;;;;;;5088503;28;20036;-67
2022/04/17 08:17:04;;;;;;;7.15;4.45;;;;;;;;;;5071484;28;20123;-76
2022/04/17 08:19:32;;;;;;;7.75;5.35;;;;;;;;;;5064443;28;20055;-79
2022/04/17 08:22:01;;;;;;;8.05;5.07;;;;;;;;;;5085999;28;20040;-81
2022/04/17 08:24:29;;;;;;;10.25;5.68;;;;;;;;;;5059764;28;20147;-65
2022/04/17 08:26:55;;;;;;;8.13;5.45;;;9.10;94.90;;;;;;5084918;28;20036;-65
2022/04/17 08:29:22;;;;;;;18.00;6.13;;;;;;;;;;5060862;28;20048;-71
2022/04/17 08:31:48;;;;;;;8.13;5.53;;;;;;;;;;5034690;28;20032;-70
2022/04/17 08:34:14;;;;;;;8.75;5.78;;;;;;;;;;5061209;28;20055;-70
2022/04/17 08:36:40;;;;;;;7.65;5.50;;;;;;;;;;5045428;28;20553;-70
2022/04/17 08:39:06;;;;;;;7.13;5.65;;;;;;;;;;5078596;28;20516;-70
2022/04/17 08:41:33;;;;;;;7.55;5.57;;;;;;;;;;5086667;28;20036;-70
2022/04/17 08:43:59;;;;;;;9.20;5.93;;;;;;;;;;5064633;28;20035;-69
2022/04/17 08:46:25;;;;;;;9.73;5.85;;;;;;;;;;5061531;28;20119;-69
2022/04/17 08:48:52;;;;;;;8.38;5.03;;;;;;;;;;5060536;28;20337;-69
2022/04/17 08:51:20;;;;;;;8.32;5.50;;;;;;;;;;5056107;28;20056;-70
2022/04/17 08:53:48;;;;;;;9.73;6.13;;;;;;;;;;5085518;28;20123;-70
2022/04/17 08:56:14;;;;;;;6.72;5.07;;;;;;;;;;5080420;28;20049;-70
2022/04/17 08:58:40;;;;;;;6.68;4.95;;;;;;;;;;5057284;28;20040;-69
2022/04/17 09:01:06;;;;;;;6.80;4.95;;;;;;;;;;5049253;28;20036;-69
2022/04/17 09:03:33;;;;;;;7.22;5.45;;;;;;;;;;5058584;28;20040;-70
2022/04/17 09:05:59;;;;;;;7.53;4.55;;;;;;;;;;5052732;28;20048;-69
2022/04/17 09:08:26;;;;;;;6.20;4.55;;;;;;;;;;5044631;28;20445;-70
2022/04/17 09:10:56;;;;;;;6.47;4.28;;;;;;;;;;5079332;28;20044;-69
2022/04/17 09:13:41;;;;;;;7.00;5.47;;;;;;;;;;5063092;28;20471;-70
2022/04/17 09:16:09;;;;;;;6.32;4.88;;;;;;;;;;5046983;28;20087;-69
2022/04/17 09:18:36;;;;;;;7.38;4.88;;;;;;;;;;5061207;28;20112;-70
2022/04/17 09:21:02;;;;;;;8.27;5.13;;;;;;;;;;5059696;28;20044;-69
2022/04/17 09:23:33;;;;;;;8.13;4.50;;;;;;;;;;5063470;28;20538;-69
2022/04/17 09:26:00;;;;;;;7.30;4.90;;;;;;;;;;5089849;28;20492;-69
2022/04/17 09:28:31;;;;;;;9.02;5.32;;;;;;;;;;5072486;28;20073;-69
2022/04/17 09:30:59;;;;;;;7.70;6.03;;;10.20;87.10;;;;;;5071306;28;20036;-69
2022/04/17 09:33:34;;;;;;;6.78;5.35;;;;;;;;;;5069236;28;20065;-69
2022/04/17 09:36:00;;;;;;;10.35;6.05;;;;;;;;;;5068066;28;20492;-69
2022/04/17 09:38:30;;;;;;;7.43;5.05;;;;;;;;;;5089187;28;20036;-69
2022/04/17 09:41:10;;;;;;;7.97;5.55;;;;;;;;;;5063173;28;20040;-70
2022/04/17 09:43:36;;;;;;;6.25;5.07;;;;;;;;;;5061333;28;20113;-69
2022/04/17 09:46:03;;;;;;;9.15;5.45;;;;;;;;;;5065185;28;20123;-69
2022/04/17 09:48:34;;;;;;;8.60;5.72;;;;;;;;;;5058370;28;20131;-69
2022/04/17 09:51:01;;;;;;;10.73;6.25;;;;;;;;;;5060859;28;20064;-69
2022/04/17 09:53:35;;;;;;;7.35;5.90;;;;;;;;;;5080150;28;20048;-69
2022/04/17 09:56:24;;;;;;;10.27;5.18;;;;;;;;;;5056732;28;20125;-69
2022/04/17 09:58:50;;;;;;;9.15;4.60;;;;;;;;;;5057259;28;20044;-70
2022/04/17 10:01:18;;;;;;;6.88;4.97;;;;;;;;;;5041494;28;20117;-69
2022/04/17 10:03:45;;;;;;;5.15;3.85;;;;;;;;;;5044502;28;20049;-69
2022/04/17 10:06:12;;;;;;;9.25;5.28;;;;;;;;;;5065936;28;20039;-69
2022/04/17 10:08:43;;;;;;;8.02;5.25;;;;;;;;;;5081854;28;20121;-69
2022/04/17 10:11:09;;;;;;;8.70;5.53;;;;;;;;;;5061185;28;20123;-69
2022/04/17 10:13:36;;;;;;;7.10;4.90;;;;;;;;;;5061064;28;20055;-70
2022/04/17 10:16:04;;;;;;;6.20;4.45;;;;;;;;;;5085362;28;20467;-69
2022/04/17 10:18:36;;;;;;;7.93;4.93;;;;;;;;;;5060537;28;20044;-69
2022/04/17 10:21:05;;;;;;;8.93;5.13;;;;;;;;;;5078819;28;20175;-70
2022/04/17 10:23:31;;;;;;;7.53;4.78;;;;;;;;;;5059603;28;20094;-69
2022/04/17 10:25:58;;;;;;;7.18;4.57;;;;;;;;;;5065006;28;20085;-70
2022/04/17 10:28:26;;;;;;;6.50;4.80;;;;;;;;;;5065226;28;20055;-70
2022/04/17 10:31:14;;;;;;;5.78;4.57;;;;;;;;;;5060810;28;20058;-69
2022/04/17 10:33:40;;;;;;;7.38;4.55;;;;;;;;;;5058906;28;20571;-69
2022/04/17 10:36:09;;;;;;;7.13;4.72;;;;;;;;;;5081756;28;20045;-69
2022/04/17 10:38:46;;;;;;;6.82;4.15;;;;;;;;;;5065180;28;20098;-69
2022/04/17 10:41:13;;;;;;;7.03;4.50;;;;;;;;;;5055005;28;20047;-69
2022/04/17 10:43:50;;;;;;;5.25;4.07;;;;;;;;;;5064186;28;20048;-69
2022/04/17 10:46:19;;;;;;;6.75;4.88;;;;;;;;;;5060938;28;20114;-69
2022/04/17 10:48:46;;;;;;;6.20;4.70;;;;;;;;;;5061805;28;20102;-69
2022/04/17 10:51:13;;;;;;;5.97;4.38;;;;;;;;;;5064219;28;20095;-69
2022/04/17 10:53:49;;;;;;;7.43;4.55;;;;;;;;;;5058679;28;20052;-69
2022/04/17 10:56:16;;;;;;;7.38;4.45;;;;;;;;;;5077977;28;20052;-69
2022/04/17 10:58:50;;;;;;;6.63;4.20;;;;;;;;;;5063770;28;20193;-69
2022/04/17 11:01:16;;;;;;;7.03;4.70;;;;;;;;;;5085451;28;20040;-68
2022/04/17 11:03:52;;;;;;;6.45;4.57;;;;;;;;;;5040181;28;20105;-69
2022/04/17 11:06:31;;;;;;;8.60;5.03;;;;;;;;;;5080435;28;20140;-69
2022/04/17 11:09:15;;;;;;;5.95;4.57;;;;;;;;;;5078037;28;20142;-69
2022/04/17 11:11:45;;;;;;;7.85;4.25;;;;;;;;;;5058386;28;20049;-68
2022/04/17 11:14:17;;;;;;;6.75;4.10;;;;;;;;;;5055012;28;20513;-69
2022/04/17 11:16:50;;;;;;;6.78;4.63;;;;;;;;;;5062614;28;20044;-69
2022/04/17 11:19:17;;;;;;;10.93;4.68;;;;;;;;;;5074954;28;20199;-69
2022/04/17 11:21:45;;;;;;;4.82;3.33;;;;;;;;;;5065719;28;20270;-69
2022/04/17 11:24:11;;;;;;;5.65;4.15;;;;;;;;;;5061875;28;20158;-69
2022/04/17 11:26:55;;;;;;;6.47;3.72;;;;;;;;;;5076317;28;20036;-69
2022/04/17 11:29:34;;;;;;;6.82;4.43;;;;;;;;;;5082741;28;20036;-69
2022/04/17 11:32:01;;;;;;;7.10;4.10;;;;;;;;;;5083427;28;20039;-69
2022/04/17 11:34:43;;;;;;;5.80;3.83;;;;;;;;;;5079401;28;20048;-69
2022/04/17 11:37:10;;;;;;;6.80;4.20;;;;;;;;;;5061573;28;20036;-68
2022/04/17 11:39:39;;;;;;;7.00;3.85;;;;;;;;;;5058084;28;20103;-69
2022/04/17 11:42:06;;;;;;;6.47;4.38;;;;;;;;;;5084835;28;20086;-69
2022/04/17 11:44:33;;;;;;;5.93;4.30;;;;;;;;;;5060633;28;20849;-69
2022/04/17 11:46:59;;;;;;;6.32;3.58;;;;;;;;;;5058616;28;20675;-69
2022/04/17 11:49:25;;;;;;;5.95;3.88;;;;;;;;;;5073954;28;20683;-69
2022/04/17 11:51:52;;;;;;;6.55;4.28;;;;;;;;;;5066488;28;20044;-69
2022/04/17 11:54:33;;;;;;;7.45;4.07;;;;;;;;;;5067019;28;20465;-69
2022/04/17 11:57:00;;;;;;;6.80;4.97;;;;;;;;;;5064038;28;20101;-69
2022/04/17 11:59:26;;;;;;;6.82;4.10;;;;;;;;;;5082109;28;20036;-70
2022/04/17 12:02:14;;;;;;;5.72;4.20;;;;;;;;;;5081894;28;20045;-69
2022/04/17 12:04:42;;;;;;;6.30;4.03;;;;;;;;;;5073774;28;20405;-69
2022/04/17 12:07:08;;;;;;;6.32;4.10;;;;;;;;;;5057644;28;20048;-69
2022/04/17 12:09:34;;;;;;;5.20;3.97;;;;;;;;;;5078532;28;20127;-70
2022/04/17 12:12:00;;;;;;;4.95;3.83;;;;;;;;;;5044854;28;20040;-70
2022/04/17 12:14:30;;;;;;;6.00;3.40;;;;;;;;;;5061105;28;20579;-70
2022/04/17 12:16:56;;;;;;;6.53;3.58;;;;;;;;;;5083685;28;20036;-70
2022/04/17 12:19:25;;;;;;;6.70;3.28;;;;;;;;;;5086504;28;20572;-70
2022/04/17 12:21:52;;;;;;;5.22;3.80;;;;;;;;;;5064105;28;20074;-70
2022/04/17 12:24:18;;;;;;;7.28;4.97;;;;;;;;;;5082982;28;20105;-70
2022/04/17 12:26:45;;;;;;;4.68;3.50;;;;;;;;;;5059905;28;20044;-70
2022/04/17 12:29:11;;;;;;;6.15;3.60;;;;;;;;;;5064596;28;20093;-70
2022/04/17 12:31:38;;;;;;;6.75;4.82;;;;;;;;;;5063466;28;20113;-70
2022/04/17 12:34:08;;;;;;;5.88;3.83;;;;;;;;;;5083013;28;20055;-70
2022/04/17 12:36:37;;;;;;;7.82;4.13;;;;;;;;;;5085998;28;20050;-70
2022/04/17 12:39:04;;;;;;;5.82;3.60;;;;;;;;;;5065639;28;20059;-70
2022/04/17 12:41:37;;;;;;;4.78;3.42;;;;;;;;;;5078621;28;20036;-70
2022/04/17 12:44:03;;;;;;;5.40;4.05;;;;;;;;;;5063502;28;21671;-71
2022/04/17 12:46:30;;;;;;;5.63;3.70;;;;;;;;;;5085685;28;20036;-70
2022/04/17 12:49:03;;;;;;;5.65;3.97;;;;;;;;;;5079250;28;20040;-70
2022/04/17 12:51:29;;;;;;;5.97;3.78;;;;;;;;;;5083887;28;20083;-70
2022/04/17 12:53:55;;;;;;;4.53;3.42;;;;;;;;;;5063539;28;20072;-70
2022/04/17 12:56:25;;;;;;;5.55;3.70;;;;;;;;;;5067051;28;20048;-70
2022/04/17 12:58:58;;;;;;;5.18;3.25;;;;;;;;;;5081895;28;20042;-70
2022/04/17 13:01:24;;;;;;;4.60;3.15;;;;;;;;;;5057540;28;20109;-71
2022/04/17 13:03:51;;;;;;;5.63;3.50;;;;;;;;;;5062952;28;20645;-70
2022/04/17 13:06:23;;;;;;;7.43;2.88;;;;;;;;;;5063155;28;20042;-70
2022/04/17 13:09:12;;;;;;;6.07;3.78;;;;;;;;;;5066407;28;20115;-70
2022/04/17 13:11:42;;;;;;;5.15;3.80;;;;;;;;;;5086026;28;20071;-70
2022/04/17 13:14:09;;;;;;;3.65;3.08;;;;;;;;;;5066388;28;20040;-70
2022/04/17 13:16:47;;;;;;;5.43;3.65;;;;;;;;;;5085211;28;20075;-70
2022/04/17 13:19:13;;;;;;;4.55;3.17;;;;;;;;;;5062999;28;20086;-70
2022/04/17 13:21:39;;;;;;;4.88;3.60;;;;;;;;;;5034612;28;20508;-70
2022/04/17 13:24:05;;;;;;;5.03;3.28;;;;;;;;;;5068226;28;20052;-70
2022/04/17 13:26:31;;;;;;;5.63;3.88;;;;;;;;;;5049781;28;20485;-70
2022/04/17 13:28:57;;;;;;;4.43;3.10;;;;;;;;;;5083107;28;20051;-70
2022/04/17 13:31:24;;;;;;;8.93;4.10;;;;;;;;;;5049258;28;20040;-70
2022/04/17 13:33:50;;;;;;;3.60;2.83;;;;;;;;;;5065716;28;20054;-70
2022/04/17 13:36:16;;;;;;;4.60;3.00;;;;;;;;;;5082636;28;20339;-70
2022/04/17 13:38:42;;;;;;;4.40;3.05;;;;;;;;;;5068786;28;20040;-70
2022/04/17 13:41:08;;;;;;;3.75;2.60;;;;;;;;;;5067826;28;20485;-71
2022/04/17 13:43:34;;;;;;;5.00;3.47;;;;;;;;;;5082497;28;20113;-70
2022/04/17 13:46:00;;;;;;;4.60;3.08;;;;;;;;;;5066236;28;20046;-71
2022/04/17 13:48:26;;;;;;;5.35;2.67;;;;;;;;;;5064555;28;20386;-70
2022/04/17 13:50:54;;;;;;;4.45;3.15;;;;;;;;;;5063623;28;20577;-70
2022/04/17 13:53:20;;;;;;;4.07;3.03;;;;;;;;;;5066152;28;20044;-70
2022/04/17 13:55:46;;;;;;;4.85;3.00;;;;;;;;;;5084452;28;20048;-68
2022/04/17 13:58:12;;;;;;;5.22;3.00;;;;;;;;;;5061766;28;20099;-70
2022/04/17 14:00:38;;;;;;;5.82;3.10;;;;;;;;;;5064187;28;20050;-70
2022/04/17 14:03:05;;;;;;;10.60;3.05;;;;;;;;;;5063773;28;20049;-71
2022/04/17 14:05:31;;;;;;;4.20;3.22;;;;;;;;;;5061633;28;20044;-71
2022/04/17 14:07:57;;;;;;;4.57;3.05;;;;;;;;;;5079340;28;20074;-70
2022/04/17 14:10:23;;;;;;;5.68;3.40;;;;;;;;;;5063591;28;20085;-71
2022/04/17 14:12:50;;;;;;;6.00;3.15;;;;;;;;;;5081077;28;20150;-71
2022/04/17 14:15:16;;;;;;;4.40;3.17;;;;;;;;;;5079879;28;20052;-70
2022/04/17 14:17:43;;;;;;;5.90;3.35;;;;;;;;;;5063226;28;20380;-71
2022/04/17 14:20:09;;;;;;;4.95;3.88;;;;;;;;;;5060636;28;20048;-70
2022/04/17 14:22:35;;;;;;;5.00;3.72;;;;;;;;;;5042243;28;20116;-71
2022/04/17 14:25:01;;;;;;;5.45;3.17;;;;;;;;;;5085606;28;20455;-70
2022/04/17 14:27:27;;;;;;;5.15;3.58;;;;;;;;;;5051909;28;20047;-71
2022/04/17 14:29:53;;;;;;;5.18;3.97;;;;;;;;;;5063410;28;20118;-70
2022/04/17 14:32:20;;;;;;;6.25;3.45;;;;;;;;;;5065756;28;20051;-70
2022/04/17 14:34:46;;;;;;;4.95;3.15;;;;;;;;;;5062508;28;20044;-71
2022/04/17 14:37:13;;;;;;;5.10;2.95;;;;;;;;;;5081722;28;20502;-70
2022/04/17 14:39:42;;;;;;;5.07;3.20;;;;;;;;;;5081796;28;20036;-70
2022/04/17 14:42:09;;;;;;;6.28;3.25;;;;;;;;;;5084889;28;20075;-70
2022/04/17 14:44:36;;;;;;;5.80;3.33;;;;;;;;;;5061710;28;20508;-71
2022/04/17 14:47:03;;;;;;;5.60;3.70;;;;;;;;;;5084413;28;20123;-70